Time;durP1;ratioP1;P1;durP2;ratioP2;P2;SDS_P1;SDS_P2;PMS_P1;PMS_P2;Temp;Humidity;BMP_temperature;BMP_pressure;BME280_temperature;BME280_humidity;BME280_pressure;Samples;Min_cycle;Max_cycle;Signal;HPM_P1;HPM_P2
2021/03/25 00:00:29;;;;;;;47.78;25.83;;;6.00;87.60;;;;;;4989512;28;20053;-52
2021/03/25 00:02:57;;;;;;;43.08;24.27;;;5.90;87.50;;;;;;4993759;28;20069;-53
2021/03/25 00:05:24;;;;;;;47.42;25.15;;;6.00;87.60;;;;;;4982660;28;20054;-51
2021/03/25 00:07:51;;;;;;;51.35;27.55;;;6.00;87.70;;;;;;4977012;28;20142;-52
2021/03/25 00:10:26;;;;;;;45.42;25.73;;;6.00;87.50;;;;;;4987761;28;20049;-49
2021/03/25 00:12:52;;;;;;;43.30;25.05;;;6.00;87.80;;;;;;4993932;28;20053;-49
2021/03/25 00:15:20;;;;;;;50.38;26.02;;;6.00;87.80;;;;;;4993655;28;20080;-52
2021/03/25 00:17:45;;;;;;;48.05;25.85;;;6.00;87.60;;;;;;4993534;28;20483;-52
2021/03/25 00:20:13;;;;;;;44.47;26.17;;;5.90;87.60;;;;;;4993606;28;20169;-52
2021/03/25 00:22:39;;;;;;;41.50;23.80;;;5.90;87.60;;;;;;4992690;28;20070;-51
2021/03/25 00:25:07;;;;;;;40.97;25.27;;;5.90;87.70;;;;;;4992925;28;20502;-51
2021/03/25 00:27:33;;;;;;;46.53;25.25;;;5.90;87.70;;;;;;4987890;28;20495;-51
2021/03/25 00:30:00;;;;;;;45.15;23.48;;;5.90;88.00;;;;;;4989824;28;20042;-51
2021/03/25 00:32:26;;;;;;;41.83;23.70;;;5.90;87.80;;;;;;4993385;28;20538;-50
2021/03/25 00:34:52;;;;;;;41.72;24.15;;;5.90;87.80;;;;;;4991842;28;20042;-50
2021/03/25 00:37:18;;;;;;;42.95;24.15;;;5.90;88.00;;;;;;4988783;28;20055;-54
2021/03/25 00:39:44;;;;;;;42.95;25.02;;;5.80;87.90;;;;;;4993135;28;20046;-54
2021/03/25 00:42:11;;;;;;;48.92;26.25;;;5.80;87.80;;;;;;4992189;28;20046;-54
2021/03/25 00:44:37;;;;;;;51.60;26.65;;;5.80;88.20;;;;;;4992866;28;20495;-51
2021/03/25 00:47:03;;;;;;;46.38;26.38;;;5.70;88.50;;;;;;4984658;28;20045;-52
2021/03/25 00:49:30;;;;;;;44.83;24.90;;;5.70;88.80;;;;;;4984450;28;20058;-52
2021/03/25 00:51:56;;;;;;;48.40;27.33;;;5.70;88.60;;;;;;4986650;28;20069;-53
2021/03/25 00:54:21;;;;;;;58.50;27.60;;;5.70;88.90;;;;;;4992032;28;20074;-50
2021/03/25 00:56:47;;;;;;;52.13;27.80;;;5.80;89.00;;;;;;4992015;28;20035;-50
2021/03/25 00:59:13;;;;;;;45.63;25.30;;;5.80;89.30;;;;;;4993342;28;20034;-52
2021/03/25 01:01:38;;;;;;;48.97;26.23;;;5.80;89.20;;;;;;4991376;28;20041;-53
2021/03/25 01:04:04;;;;;;;45.67;23.90;;;5.70;89.10;;;;;;4984220;28;20034;-54
2021/03/25 01:06:30;;;;;;;41.53;23.65;;;5.70;89.20;;;;;;4992628;28;20370;-52
2021/03/25 01:08:56;;;;;;;44.67;25.15;;;5.60;88.70;;;;;;4992305;28;20049;-51
2021/03/25 01:11:27;;;;;;;38.05;23.90;;;5.60;88.90;;;;;;4991821;28;20088;-54
2021/03/25 01:14:02;;;;;;;46.88;24.83;;;5.60;88.90;;;;;;4991654;28;20042;-51
2021/03/25 01:16:37;;;;;;;51.60;26.65;;;5.60;89.10;;;;;;4990534;28;20046;-50
2021/03/25 01:19:09;;;;;;;54.85;27.92;;;5.60;89.30;;;;;;4992287;28;20061;-50
2021/03/25 01:21:35;;;;;;;54.25;28.55;;;5.60;89.70;;;;;;4982230;28;20045;-51
2021/03/25 01:24:08;;;;;;;53.88;29.80;;;5.60;89.60;;;;;;4992727;28;20487;-50
2021/03/25 01:26:35;;;;;;;59.00;29.08;;;5.60;89.90;;;;;;4991472;28;20519;-50
2021/03/25 01:29:03;;;;;;;52.08;27.73;;;5.70;89.80;;;;;;4990862;28;20129;-51
2021/03/25 01:31:31;;;;;;;54.58;27.60;;;5.70;89.60;;;;;;5007637;28;20418;-51
2021/03/25 01:33:57;;;;;;;45.67;24.30;;;5.70;89.30;;;;;;4992155;28;20046;-50
2021/03/25 01:36:23;;;;;;;43.25;22.75;;;5.70;89.20;;;;;;4987748;28;20046;-50
2021/03/25 01:38:50;;;;;;;43.42;23.42;;;5.70;88.90;;;;;;4989260;28;20081;-50
2021/03/25 01:41:15;;;;;;;42.28;25.52;;;5.60;88.70;;;;;;4992815;28;20507;-50
2021/03/25 01:43:50;;;;;;;51.05;26.02;;;5.60;88.80;;;;;;4991726;28;20038;-53
2021/03/25 01:46:27;;;;;;;50.92;27.45;;;5.60;88.90;;;;;;5006658;28;20046;-53
2021/03/25 01:49:00;;;;;;;52.47;28.23;;;5.60;89.00;;;;;;4989882;28;20430;-51
2021/03/25 01:51:26;;;;;;;;;;;5.60;89.20;;;;;;4992537;28;20034;-50
2021/03/25 01:54:09;;;;;;;51.05;27.25;;;5.60;89.40;;;;;;4990814;28;19921;-50
2021/03/25 01:57:17;;;;;;;49.80;28.40;;;5.60;89.10;;;;;;4991407;28;20038;-51
2021/03/25 01:59:58;;;;;;;56.60;28.90;;;5.70;89.60;;;;;;4990434;28;20466;-51
2021/03/25 02:02:54;;;;;;;54.08;27.08;;;5.70;89.60;;;;;;4984499;28;20083;-51
2021/03/25 02:05:23;;;;;;;52.72;27.25;;;5.70;89.80;;;;;;4975638;28;20050;-50
2021/03/25 02:07:57;;;;;;;52.28;28.38;;;5.80;89.70;;;;;;4985537;28;20069;-52
2021/03/25 02:10:47;;;;;;;56.00;28.55;;;5.80;89.90;;;;;;4989946;28;20038;-51
2021/03/25 02:13:34;;;;;;;55.83;29.83;;;5.80;90.00;;;;;;4991163;28;20093;-50
2021/03/25 02:16:07;;;;;;;55.45;30.10;;;5.80;90.00;;;;;;4984709;28;20352;-50
2021/03/25 02:18:53;;;;;;;56.25;31.10;;;5.90;90.10;;;;;;4990992;28;20034;-51
2021/03/25 02:21:44;;;;;;;60.78;30.83;;;5.90;90.10;;;;;;4990672;28;20046;-50
2021/03/25 02:24:33;;;;;;;57.80;30.75;;;6.00;89.90;;;;;;4987420;28;20062;-52
2021/03/25 02:27:22;;;;;;;52.70;30.52;;;6.00;89.70;;;;;;4988675;28;20502;-51
2021/03/25 02:29:53;;;;;;;58.38;29.58;;;6.10;89.80;;;;;;4988795;28;20093;-51
2021/03/25 02:32:27;;;;;;;51.58;28.27;;;6.10;89.90;;;;;;4984291;28;20125;-51
2021/03/25 02:34:56;;;;;;;57.90;30.58;;;6.10;89.70;;;;;;4988770;28;20038;-51
2021/03/25 02:37:26;;;;;;;60.50;31.77;;;6.10;89.80;;;;;;4990021;28;20046;-54
2021/03/25 02:40:13;;;;;;;65.78;30.98;;;6.10;89.80;;;;;;4983537;28;20487;-53
2021/03/25 02:42:47;;;;;;;55.80;29.50;;;6.10;89.90;;;;;;4979902;28;20038;-53
2021/03/25 02:45:34;;;;;;;58.78;31.65;;;6.20;89.80;;;;;;4990817;28;20042;-52
2021/03/25 02:48:08;;;;;;;61.90;31.17;;;6.20;89.60;;;;;;4983791;28;20081;-51
2021/03/25 02:50:45;;;;;;;61.22;31.75;;;6.30;89.50;;;;;;4990355;28;20407;-51
2021/03/25 02:53:20;;;;;;;61.58;32.40;;;6.30;89.40;;;;;;4988082;28;20044;-51
2021/03/25 02:55:46;;;;;;;57.97;31.55;;;6.30;89.40;;;;;;4983629;28;20038;-51
2021/03/25 02:58:21;;;;;;;62.20;32.47;;;6.30;89.30;;;;;;4980175;28;20055;-51
2021/03/25 03:01:05;;;;;;;61.33;32.30;;;6.30;89.40;;;;;;4992702;28;20116;-51
2021/03/25 03:03:44;;;;;;;54.78;31.73;;;6.30;89.30;;;;;;4985739;28;20050;-51
2021/03/25 03:06:25;;;;;;;59.40;31.95;;;6.30;89.40;;;;;;4991018;28;20054;-50
2021/03/25 03:08:53;;;;;;;57.35;30.25;;;6.40;89.40;;;;;;4987815;28;20085;-51
2021/03/25 03:11:26;;;;;;;54.92;31.65;;;6.40;89.20;;;;;;4983924;28;20030;-54
2021/03/25 03:14:03;;;;;;;63.22;32.10;;;6.40;89.30;;;;;;4984691;28;20150;-53
2021/03/25 03:16:37;;;;;;;59.75;31.60;;;6.40;89.30;;;;;;4989431;28;20140;-51
2021/03/25 03:19:09;;;;;;;55.97;32.35;;;6.40;89.20;;;;;;4990682;28;20065;-54
2021/03/25 03:21:49;;;;;;;55.67;30.75;;;6.40;89.20;;;;;;4962957;28;20039;-54
2021/03/25 03:24:17;;;;;;;60.30;32.13;;;6.50;89.30;;;;;;4990641;28;20050;-54
2021/03/25 03:26:52;;;;;;;61.83;32.60;;;6.50;89.20;;;;;;4990081;28;20494;-51
2021/03/25 03:29:20;;;;;;;56.25;31.48;;;6.50;89.10;;;;;;4988251;28;20133;-54
2021/03/25 03:32:00;;;;;;;59.30;32.50;;;6.50;89.00;;;;;;4985854;28;20045;-51
2021/03/25 03:34:36;;;;;;;59.53;32.63;;;6.40;89.00;;;;;;4990374;28;20380;-52
2021/03/25 03:37:09;;;;;;;58.47;31.48;;;6.50;89.00;;;;;;4986365;28;20038;-54
2021/03/25 03:39:37;;;;;;;61.63;33.13;;;6.50;89.00;;;;;;4993517;28;20035;-53
2021/03/25 03:42:14;;;;;;;63.28;32.90;;;6.60;89.00;;;;;;4987616;28;20043;-52
2021/03/25 03:44:44;;;;;;;59.85;32.22;;;6.50;88.90;;;;;;4994635;28;20042;-52
2021/03/25 03:47:12;;;;;;;56.22;32.58;;;6.60;89.00;;;;;;4992946;28;20034;-50
2021/03/25 03:49:46;;;;;;;62.05;31.70;;;6.60;89.10;;;;;;4994953;28;20470;-54
2021/03/25 03:52:26;;;;;;;54.58;30.38;;;6.60;89.60;;;;;;4992446;28;20041;-54
2021/03/25 03:54:54;;;;;;;56.45;30.02;;;6.60;89.20;;;;;;4990560;28;20038;-54
2021/03/25 03:57:32;;;;;;;53.95;29.65;;;6.60;89.40;;;;;;4989371;28;20045;-53
2021/03/25 04:00:04;;;;;;;52.88;29.77;;;6.60;89.90;;;;;;4987868;28;20042;-51
2021/03/25 04:02:42;;;;;;;56.63;30.77;;;6.50;89.70;;;;;;4991188;28;20335;-51
2021/03/25 04:05:41;;;;;;;53.97;29.70;;;6.50;89.70;;;;;;4993153;28;20042;-54
2021/03/25 04:08:21;;;;;;;60.70;30.80;;;6.60;90.00;;;;;;4974653;28;20050;-54
2021/03/25 04:10:59;;;;;;;64.32;33.70;;;6.50;90.00;;;;;;4985466;28;20069;-53
2021/03/25 04:13:31;;;;;;;64.03;33.53;;;6.50;90.00;;;;;;4992611;28;20121;-51
2021/03/25 04:15:56;;;;;;;58.58;32.95;;;6.60;90.10;;;;;;4992516;28;20065;-52
2021/03/25 04:18:44;;;;;;;61.40;33.33;;;6.60;90.00;;;;;;4992088;28;20043;-50
2021/03/25 04:21:18;;;;;;;65.40;31.90;;;6.60;89.90;;;;;;4990383;28;20165;-51
2021/03/25 04:23:45;;;;;;;60.03;32.40;;;6.60;89.80;;;;;;4990789;28;20514;-52
2021/03/25 04:26:22;;;;;;;62.80;33.90;;;6.60;89.70;;;;;;4988491;28;20050;-50
2021/03/25 04:29:00;;;;;;;64.22;34.28;;;6.60;89.60;;;;;;4993181;28;20402;-52
2021/03/25 04:31:29;;;;;;;65.65;32.72;;;6.60;89.70;;;;;;4985728;28;20081;-49
2021/03/25 04:33:55;;;;;;;61.13;32.35;;;6.60;90.10;;;;;;4993954;28;20745;-53
2021/03/25 04:36:24;;;;;;;65.72;32.65;;;6.60;89.50;;;;;;4992750;28;20107;-53
2021/03/25 04:38:52;;;;;;;64.57;34.10;;;6.60;89.60;;;;;;4993877;28;20136;-49
2021/03/25 04:41:18;;;;;;;61.38;34.40;;;6.60;89.60;;;;;;4993477;28;20046;-52
2021/03/25 04:43:46;;;;;;;63.83;33.65;;;6.60;89.70;;;;;;4988708;28;20034;-50
2021/03/25 04:46:35;;;;;;;65.30;32.83;;;6.60;89.60;;;;;;4989332;28;20149;-53
2021/03/25 04:49:08;;;;;;;68.82;34.22;;;6.60;89.60;;;;;;4980004;28;20109;-53
2021/03/25 04:51:34;;;;;;;62.28;32.92;;;6.70;89.70;;;;;;4990565;28;20611;-51
2021/03/25 04:54:30;;;;;;;62.50;33.88;;;6.70;89.50;;;;;;4993806;28;20042;-53
2021/03/25 04:57:04;;;;;;;65.53;33.65;;;6.70;89.60;;;;;;4989640;28;20491;-53
2021/03/25 04:59:30;;;;;;;60.90;32.45;;;6.70;89.60;;;;;;4991547;28;20049;-53
2021/03/25 05:01:56;;;;;;;70.30;35.35;;;6.70;89.50;;;;;;4990829;28;20177;-53
2021/03/25 05:04:22;;;;;;;68.13;34.83;;;6.60;89.50;;;;;;4991807;28;20038;-53
2021/03/25 05:06:57;;;;;;;63.28;34.90;;;6.70;89.50;;;;;;4989691;28;20053;-52
2021/03/25 05:09:25;;;;;;;68.47;35.67;;;6.70;89.80;;;;;;4991392;28;20090;-54
2021/03/25 05:11:52;;;;;;;66.35;36.63;;;6.70;89.70;;;;;;4992415;28;20117;-54
2021/03/25 05:14:19;;;;;;;67.65;38.05;;;6.70;89.60;;;;;;4993531;28;20505;-52
2021/03/25 05:17:08;;;;;;;72.78;37.80;;;6.70;89.60;;;;;;4990958;28;20042;-53
2021/03/25 05:19:53;;;;;;;74.60;38.58;;;6.70;89.70;;;;;;4982353;28;20054;-54
2021/03/25 05:22:38;;;;;;;75.00;38.17;;;6.80;89.70;;;;;;4991972;28;20036;-54
2021/03/25 05:25:32;;;;;;;72.18;36.13;;;6.80;89.50;;;;;;4989682;28;20034;-50
2021/03/25 05:28:03;;;;;;;70.70;35.28;;;6.70;89.40;;;;;;4992255;28;20046;-51
2021/03/25 05:30:33;;;;;;;66.40;36.13;;;6.70;89.40;;;;;;4992597;28;20070;-49
2021/03/25 05:33:04;;;;;;;68.65;34.75;;;6.70;89.30;;;;;;4989308;28;20455;-52
2021/03/25 05:35:36;;;;;;;67.80;35.20;;;6.70;89.90;;;;;;4975341;28;20208;-54
2021/03/25 05:38:03;;;;;;;66.68;34.40;;;6.70;89.50;;;;;;4980161;28;20138;-53
2021/03/25 05:40:34;;;;;;;75.97;36.00;;;6.70;89.30;;;;;;4986492;28;20038;-52
2021/03/25 05:43:25;;;;;;;68.15;36.38;;;6.70;89.40;;;;;;4988240;28;20045;-54
2021/03/25 05:46:23;;;;;;;72.72;36.47;;;6.70;89.40;;;;;;4980785;28;20047;-53
2021/03/25 05:49:03;;;;;;;67.60;35.03;;;6.70;89.40;;;;;;4992243;28;20517;-53
2021/03/25 05:51:58;;;;;;;66.18;35.35;;;6.80;89.50;;;;;;4991740;28;20434;-53
2021/03/25 05:54:56;;;;;;;68.15;35.92;;;6.80;89.40;;;;;;4991672;28;20151;-54
2021/03/25 05:57:58;;;;;;;65.70;35.33;;;6.80;89.30;;;;;;4984895;28;20073;-53
2021/03/25 06:00:38;;;;;;;74.50;36.20;;;6.80;89.20;;;;;;4951512;28;20082;-52
2021/03/25 06:03:09;;;;;;;71.97;37.25;;;6.80;89.30;;;;;;4989605;28;20058;-52
2021/03/25 06:05:35;;;;;;;67.05;34.53;;;6.90;89.30;;;;;;4991502;28;20041;-53
2021/03/25 06:08:21;;;;;;;71.65;35.55;;;6.90;89.20;;;;;;4989402;28;20039;-53
2021/03/25 06:11:24;;;;;;;75.03;36.63;;;6.90;89.20;;;;;;4988836;28;20302;-53
2021/03/25 06:14:06;;;;;;;68.03;37.20;;;6.90;89.40;;;;;;4992487;28;20038;-52
2021/03/25 06:16:50;;;;;;;66.97;34.97;;;6.90;89.40;;;;;;4978613;28;20082;-53
2021/03/25 06:19:44;;;;;;;66.03;35.42;;;7.00;89.70;;;;;;4990572;28;20042;-53
2021/03/25 06:22:19;;;;;;;68.05;34.72;;;7.00;90.00;;;;;;4982574;28;20121;-53
2021/03/25 06:25:19;;;;;;;72.30;36.25;;;7.00;89.50;;;;;;4982602;28;20444;-53
2021/03/25 06:28:03;;;;;;;70.20;36.50;;;7.10;89.90;;;;;;4995131;28;20042;-49
2021/03/25 06:30:33;;;;;;;75.47;35.75;;;7.10;89.40;;;;;;4985993;28;20524;-52
2021/03/25 06:33:25;;;;;;;74.40;36.40;;;7.10;89.50;;;;;;4979179;28;20101;-54
2021/03/25 06:35:59;;;;;;;73.38;36.25;;;7.20;89.80;;;;;;4984224;28;20421;-53
2021/03/25 06:38:28;;;;;;;66.95;35.42;;;7.20;89.70;;;;;;4988612;28;20129;-52
2021/03/25 06:41:15;;;;;;;72.32;37.08;;;7.20;89.40;;;;;;4986862;28;20042;-52
2021/03/25 06:44:08;;;;;;;71.13;36.97;;;7.20;89.70;;;;;;4990874;28;20109;-52
2021/03/25 06:46:40;;;;;;;75.07;37.35;;;7.20;89.70;;;;;;4978385;28;20482;-51
2021/03/25 06:49:18;;;;;;;64.82;35.40;;;7.20;89.50;;;;;;4986562;28;20100;-53
2021/03/25 06:51:44;;;;;;;68.43;35.60;;;7.30;89.60;;;;;;4984508;28;20030;-52
2021/03/25 06:54:20;;;;;;;74.25;36.25;;;7.30;89.30;;;;;;4989745;28;20057;-51
2021/03/25 06:56:53;;;;;;;73.88;37.88;;;7.30;89.20;;;;;;4984195;28;20035;-53
2021/03/25 06:59:32;;;;;;;69.07;36.88;;;7.30;89.30;;;;;;4991580;28;20097;-53
2021/03/25 07:02:19;;;;;;;75.75;37.60;;;7.40;89.20;;;;;;4991093;28;20038;-54
2021/03/25 07:04:48;;;;;;;71.93;37.78;;;7.40;89.00;;;;;;4976026;28;20113;-52
2021/03/25 07:07:22;;;;;;;71.28;39.97;;;7.50;88.80;;;;;;4979235;28;20043;-52
2021/03/25 07:09:48;;;;;;;76.72;38.55;;;7.50;88.70;;;;;;4984622;28;20619;-54
2021/03/25 07:12:20;;;;;;;68.15;38.15;;;7.60;88.70;;;;;;4988060;28;20050;-53
2021/03/25 07:14:47;;;;;;;70.20;38.70;;;7.70;88.60;;;;;;4980178;28;20043;-50
2021/03/25 07:17:15;;;;;;;74.45;38.83;;;7.70;88.50;;;;;;4982506;28;20085;-53
2021/03/25 07:19:46;;;;;;;79.00;39.63;;;7.80;88.80;;;;;;4983382;28;20046;-52
2021/03/25 07:22:21;;;;;;;75.43;41.10;;;7.80;88.50;;;;;;4980281;28;20077;-53
2021/03/25 07:24:51;;;;;;;77.60;41.83;;;7.90;88.50;;;;;;4980266;28;20043;-54
2021/03/25 07:27:24;;;;;;;77.72;42.30;;;8.00;88.30;;;;;;4986655;28;20105;-51
2021/03/25 07:30:00;;;;;;;79.45;40.90;;;8.00;88.00;;;;;;4990855;28;20399;-50
2021/03/25 07:33:05;;;;;;;82.97;42.17;;;8.00;87.40;;;;;;4985078;28;20049;-49
2021/03/25 07:35:37;;;;;;;85.13;42.40;;;8.00;87.50;;;;;;4995758;28;20138;-52
2021/03/25 07:38:25;;;;;;;84.72;42.25;;;8.00;87.60;;;;;;4985767;28;20043;-53
2021/03/25 07:41:22;;;;;;;82.07;41.95;;;8.00;87.60;;;;;;4987572;28;20415;-52
2021/03/25 07:43:56;;;;;;;76.15;42.35;;;8.10;87.60;;;;;;4992755;28;20511;-51
2021/03/25 07:46:43;;;;;;;87.55;43.92;;;8.10;87.20;;;;;;4994098;28;20128;-50
2021/03/25 07:49:09;;;;;;;80.63;43.50;;;8.10;86.80;;;;;;4969837;28;20113;-51
2021/03/25 07:51:45;;;;;;;78.80;43.67;;;8.10;86.90;;;;;;4983932;28;20046;-50
2021/03/25 07:54:34;;;;;;;80.70;42.72;;;8.10;87.10;;;;;;4983321;28;20146;-51
2021/03/25 07:57:07;;;;;;;89.90;46.10;;;8.20;87.20;;;;;;4980884;28;20043;-49
2021/03/25 07:59:40;;;;;;;84.70;44.28;;;8.20;87.10;;;;;;4979888;28;20043;-52
2021/03/25 08:02:42;;;;;;;82.13;43.38;;;8.30;87.20;;;;;;4978123;28;20035;-53
2021/03/25 08:05:22;;;;;;;89.55;45.05;;;8.30;87.70;;;;;;4955665;28;20496;-50
2021/03/25 08:07:50;;;;;;;82.97;44.03;;;8.40;87.60;;;;;;4975199;28;20047;-53
2021/03/25 08:10:37;;;;;;;79.82;42.67;;;8.50;87.50;;;;;;4974408;28;20054;-50
2021/03/25 08:13:29;;;;;;;88.25;44.25;;;8.60;87.60;;;;;;4979869;28;20097;-53
2021/03/25 08:16:08;;;;;;;82.40;42.25;;;8.70;87.20;;;;;;4975487;28;20119;-53
2021/03/25 08:19:14;;;;;;;83.20;44.30;;;8.90;87.00;;;;;;4980723;28;20084;-52
2021/03/25 08:21:52;;;;;;;89.53;44.65;;;9.00;86.80;;;;;;4982012;28;20069;-50
2021/03/25 08:24:55;;;;;;;85.85;44.00;;;9.10;86.00;;;;;;4979022;28;20042;-51
2021/03/25 08:27:52;;;;;;;83.05;43.65;;;9.20;85.70;;;;;;4992162;28;20042;-51
2021/03/25 08:30:33;;;;;;;85.07;44.10;;;9.30;85.20;;;;;;4979427;28;20176;-52
2021/03/25 08:33:08;;;;;;;78.80;42.97;;;9.40;85.70;;;;;;4977851;28;20487;-52
2021/03/25 08:35:55;;;;;;;80.80;44.47;;;9.50;85.50;;;;;;4978195;28;20038;-51
2021/03/25 08:38:48;;;;;;;77.85;43.42;;;9.60;85.20;;;;;;4975515;28;20035;-51
2021/03/25 08:41:32;;;;;;;84.78;44.72;;;9.70;85.40;;;;;;4975289;28;20110;-52
2021/03/25 08:44:11;;;;;;;80.57;42.88;;;9.80;84.60;;;;;;4988202;28;20038;-51
2021/03/25 08:46:45;;;;;;;83.13;43.72;;;9.90;84.10;;;;;;4988963;28;20066;-51
2021/03/25 08:49:22;;;;;;;85.18;42.97;;;9.90;83.90;;;;;;4984639;28;20104;-52
2021/03/25 08:51:49;;;;;;;78.18;43.30;;;10.00;83.80;;;;;;4991076;28;20038;-50
2021/03/25 08:54:45;;;;;;;78.60;41.17;;;10.10;83.50;;;;;;4990001;28;20065;-51
2021/03/25 08:57:17;;;;;;;72.95;40.80;;;10.20;82.70;;;;;;4982944;28;20041;-54
2021/03/25 08:59:55;;;;;;;76.25;42.92;;;10.20;81.60;;;;;;4990583;28;20133;-51
2021/03/25 09:02:25;;;;;;;71.07;40.90;;;10.30;81.70;;;;;;4983063;28;20055;-51
2021/03/25 09:05:10;;;;;;;77.35;41.83;;;10.20;80.90;;;;;;4994651;28;20129;-52
2021/03/25 09:07:38;;;;;;;73.75;39.63;;;10.30;81.50;;;;;;4979140;28;20043;-52
2021/03/25 09:10:14;;;;;;;73.82;41.13;;;10.60;80.80;;;;;;4992382;28;20046;-53
2021/03/25 09:12:41;;;;;;;71.00;40.35;;;10.80;80.70;;;;;;4994546;28;20070;-53
2021/03/25 09:15:07;;;;;;;76.65;41.33;;;10.90;79.90;;;;;;4995671;28;20039;-54
2021/03/25 09:17:52;;;;;;;83.97;42.53;;;11.10;80.00;;;;;;4993883;28;20047;-51
2021/03/25 09:20:27;;;;;;;77.00;41.65;;;11.40;79.50;;;;;;4994095;28;20138;-54
2021/03/25 09:22:58;;;;;;;75.78;41.17;;;11.60;78.50;;;;;;4994623;28;20045;-52
2021/03/25 09:25:27;;;;;;;79.95;42.03;;;11.70;78.30;;;;;;4996300;28;20062;-52
2021/03/25 09:27:58;;;;;;;79.25;41.22;;;11.70;78.30;;;;;;4995157;28;20062;-51
2021/03/25 09:30:41;;;;;;;89.17;43.20;;;11.70;77.70;;;;;;4993644;28;20121;-52
2021/03/25 09:33:35;;;;;;;81.82;44.13;;;11.80;77.00;;;;;;4993696;28;20034;-52
2021/03/25 09:36:01;;;;;;;79.20;42.95;;;11.80;77.10;;;;;;4992518;28;20045;-51
2021/03/25 09:38:33;;;;;;;81.82;42.75;;;11.90;77.30;;;;;;4994691;28;20038;-51
2021/03/25 09:41:01;;;;;;;;;;;11.90;76.70;;;;;;4989318;28;20039;-54
2021/03/25 09:43:29;;;;;;;79.15;42.45;;;12.00;75.90;;;;;;4983302;28;19918;-53
2021/03/25 09:45:56;;;;;;;78.80;42.05;;;11.90;76.40;;;;;;4991873;28;20422;-52
2021/03/25 09:48:27;;;;;;;79.80;43.10;;;11.90;77.00;;;;;;4993012;28;20503;-51
2021/03/25 09:51:06;;;;;;;71.53;40.75;;;12.00;77.00;;;;;;4990973;28;20501;-54
2021/03/25 09:53:50;;;;;;;72.28;40.38;;;12.00;76.40;;;;;;5007315;28;20073;-54
2021/03/25 09:56:29;;;;;;;77.03;41.72;;;12.00;75.30;;;;;;4992909;28;20065;-52
2021/03/25 09:58:55;;;;;;;72.90;41.03;;;12.00;75.70;;;;;;4981493;28;20423;-51
2021/03/25 10:01:54;;;;;;;71.50;41.55;;;12.00;75.30;;;;;;4989234;28;20561;-54
2021/03/25 10:04:38;;;;;;;81.32;42.25;;;12.10;75.50;;;;;;4976308;28;20046;-52
2021/03/25 10:07:09;;;;;;;72.07;39.83;;;12.10;75.40;;;;;;4980796;28;20042;-52
2021/03/25 10:09:47;;;;;;;71.80;39.72;;;12.20;74.90;;;;;;4978139;28;20078;-51
2021/03/25 10:12:13;;;;;;;66.68;37.33;;;12.40;74.40;;;;;;4992473;28;20047;-52
2021/03/25 10:14:57;;;;;;;70.38;39.58;;;12.60;74.00;;;;;;4986240;28;20474;-51
2021/03/25 10:17:48;;;;;;;63.92;36.42;;;12.80;72.80;;;;;;4991869;28;20454;-53
2021/03/25 10:20:52;;;;;;;63.85;35.58;;;12.90;71.10;;;;;;4989522;28;20042;-52
2021/03/25 10:23:42;;;;;;;67.47;37.20;;;13.10;67.90;;;;;;4983132;28;20236;-51
2021/03/25 10:26:15;;;;;;;62.88;38.15;;;13.20;69.30;;;;;;4991064;28;20046;-54
2021/03/25 10:28:45;;;;;;;64.85;36.85;;;13.20;68.90;;;;;;4993790;28;20050;-54
2021/03/25 10:31:22;;;;;;;58.10;36.38;;;13.20;70.20;;;;;;4985384;28;20054;-54
2021/03/25 10:33:50;;;;;;;65.40;37.03;;;13.20;70.50;;;;;;4985113;28;20054;-51
2021/03/25 10:36:19;;;;;;;60.42;35.13;;;13.20;70.90;;;;;;4982766;28;20046;-53
2021/03/25 10:39:03;;;;;;;62.28;34.45;;;13.20;70.70;;;;;;4993323;28;20038;-54
2021/03/25 10:41:35;;;;;;;60.85;34.38;;;13.30;70.90;;;;;;4991078;28;20046;-54
2021/03/25 10:44:37;;;;;;;58.70;34.33;;;13.40;69.40;;;;;;4991378;28;20035;-52
2021/03/25 10:47:06;;;;;;;58.60;32.72;;;13.50;69.30;;;;;;4969470;28;20077;-54
2021/03/25 10:49:51;;;;;;;54.88;32.10;;;13.70;69.60;;;;;;4982492;28;20050;-51
2021/03/25 10:52:39;;;;;;;54.88;30.55;;;13.80;66.30;;;;;;4991262;28;20046;-53
2021/03/25 10:55:30;;;;;;;42.30;25.42;;;14.00;67.40;;;;;;4993790;28;20041;-51
2021/03/25 10:58:00;;;;;;;51.38;29.65;;;14.00;65.40;;;;;;4991913;28;20049;-54
2021/03/25 11:00:29;;;;;;;50.97;29.38;;;14.10;66.70;;;;;;4991782;28;20105;-54
2021/03/25 11:02:55;;;;;;;51.30;29.38;;;14.10;67.20;;;;;;4985154;28;20046;-54
2021/03/25 11:05:31;;;;;;;47.30;28.75;;;14.10;64.90;;;;;;4990045;28;20577;-53
2021/03/25 11:08:01;;;;;;;49.90;28.80;;;14.20;65.70;;;;;;4993602;28;20038;-53
2021/03/25 11:10:30;;;;;;;51.70;30.40;;;14.20;65.80;;;;;;4987161;28;20043;-53
2021/03/25 11:12:58;;;;;;;45.47;27.58;;;14.10;66.70;;;;;;4990903;28;20391;-51
2021/03/25 11:15:37;;;;;;;46.13;27.95;;;14.30;65.80;;;;;;4991365;28;20042;-52
2021/03/25 11:18:19;;;;;;;51.22;29.20;;;14.40;65.40;;;;;;4991290;28;20050;-53
2021/03/25 11:20:46;;;;;;;50.35;29.58;;;14.50;64.30;;;;;;4990904;28;20426;-55
2021/03/25 11:23:15;;;;;;;50.47;29.45;;;14.40;65.10;;;;;;4991375;28;20050;-51
2021/03/25 11:25:41;;;;;;;46.78;30.30;;;14.50;65.00;;;;;;4991546;28;20085;-54
2021/03/25 11:28:14;;;;;;;54.42;30.50;;;14.40;65.40;;;;;;4990377;28;20038;-54
2021/03/25 11:30:45;;;;;;;53.50;30.88;;;14.30;66.90;;;;;;4984555;28;20069;-51
2021/03/25 11:33:29;;;;;;;50.80;30.92;;;14.20;67.50;;;;;;5008359;28;20475;-53
2021/03/25 11:35:57;;;;;;;53.10;31.38;;;14.10;67.00;;;;;;4990476;28;20050;-52
2021/03/25 11:38:26;;;;;;;50.58;31.20;;;14.00;67.20;;;;;;4993212;28;20050;-54
2021/03/25 11:40:54;;;;;;;55.95;32.97;;;14.00;68.30;;;;;;4992645;28;20061;-54
2021/03/25 11:43:24;;;;;;;54.35;32.55;;;13.90;68.30;;;;;;4991444;28;20038;-53
2021/03/25 11:45:56;;;;;;;51.85;33.05;;;13.90;69.00;;;;;;4992557;28;20048;-53
2021/03/25 11:48:26;;;;;;;56.50;34.00;;;14.00;69.30;;;;;;4993176;28;20042;-51
2021/03/25 11:50:54;;;;;;;54.53;33.88;;;14.00;69.10;;;;;;4992259;28;20126;-51
2021/03/25 11:53:39;;;;;;;56.58;35.08;;;13.90;69.40;;;;;;4995532;28;20046;-53
2021/03/25 11:56:07;;;;;;;59.50;36.60;;;13.90;69.70;;;;;;4993245;28;20414;-54
2021/03/25 11:58:35;;;;;;;63.75;36.85;;;13.90;70.50;;;;;;4994167;28;20046;-51
2021/03/25 12:01:24;;;;;;;62.45;37.70;;;13.90;72.20;;;;;;4989918;28;20047;-52
2021/03/25 12:04:22;;;;;;;67.60;37.65;;;13.80;72.70;;;;;;4995081;28;20038;-52
2021/03/25 12:06:57;;;;;;;63.20;37.38;;;13.80;72.40;;;;;;4981567;28;20120;-51
2021/03/25 12:09:23;;;;;;;63.05;38.22;;;13.80;72.40;;;;;;4992426;28;20046;-52
2021/03/25 12:11:50;;;;;;;60.25;36.83;;;13.80;72.00;;;;;;4973433;28;20043;-53
2021/03/25 12:14:18;;;;;;;58.92;37.70;;;13.80;71.90;;;;;;4992613;28;20042;-55
2021/03/25 12:16:44;;;;;;;65.25;37.70;;;13.80;72.20;;;;;;4995911;28;20483;-50
2021/03/25 12:19:10;;;;;;;61.30;37.95;;;13.70;72.50;;;;;;4993938;28;20415;-55
2021/03/25 12:21:38;;;;;;;61.53;37.78;;;13.70;73.30;;;;;;4996355;28;20034;-55
2021/03/25 12:24:05;;;;;;;65.00;38.17;;;13.70;73.70;;;;;;4997381;28;20125;-50
2021/03/25 12:26:31;;;;;;;61.33;34.67;;;13.80;74.50;;;;;;4996540;28;20045;-54
2021/03/25 12:29:03;;;;;;;53.83;33.30;;;13.80;74.20;;;;;;4995457;28;20042;-54
2021/03/25 12:31:35;;;;;;;59.45;33.80;;;13.80;73.10;;;;;;4995699;28;20088;-54
2021/03/25 12:34:01;;;;;;;55.83;32.95;;;13.80;72.80;;;;;;4995749;28;20546;-52
2021/03/25 12:36:27;;;;;;;50.55;31.67;;;13.80;72.60;;;;;;4992897;28;20042;-52
2021/03/25 12:38:54;;;;;;;53.67;32.33;;;13.80;72.80;;;;;;4995896;28;20048;-54
2021/03/25 12:41:38;;;;;;;50.25;31.90;;;13.70;72.40;;;;;;4996783;28;20490;-53
2021/03/25 12:44:08;;;;;;;57.42;33.88;;;13.70;72.70;;;;;;4995233;28;20535;-53
2021/03/25 12:46:34;;;;;;;58.33;34.50;;;13.60;73.90;;;;;;4995119;28;20049;-55
2021/03/25 12:48:59;;;;;;;51.92;32.50;;;13.50;74.00;;;;;;4995534;28;20113;-53
2021/03/25 12:51:25;;;;;;;49.88;31.35;;;13.50;74.10;;;;;;4999694;28;20109;-54
2021/03/25 12:53:52;;;;;;;49.92;32.28;;;13.50;74.50;;;;;;5002892;28;20491;-53
2021/03/25 12:56:34;;;;;;;47.63;29.67;;;13.40;74.50;;;;;;4994928;28;20046;-52
2021/03/25 12:59:13;;;;;;;45.67;28.53;;;13.50;74.20;;;;;;4995484;28;20046;-53
2021/03/25 13:01:40;;;;;;;45.75;26.73;;;13.40;74.30;;;;;;4994433;28;20293;-50
2021/03/25 13:04:06;;;;;;;41.42;27.05;;;13.40;74.30;;;;;;4995071;28;20089;-53
2021/03/25 13:06:36;;;;;;;49.63;26.95;;;13.30;74.70;;;;;;4995838;28;20121;-55
2021/03/25 13:09:03;;;;;;;40.15;25.60;;;13.20;74.80;;;;;;4988146;28;20057;-54
2021/03/25 13:11:30;;;;;;;44.65;25.65;;;13.10;74.80;;;;;;4970013;28;20076;-54
2021/03/25 13:13:57;;;;;;;36.67;24.00;;;13.10;75.10;;;;;;4977674;28;20110;-53